Time;durP1;ratioP1;P1;durP2;ratioP2;P2;SDS_P1;SDS_P2;PMS_P1;PMS_P2;Temp;Humidity;BMP_temperature;BMP_pressure;BME280_temperature;BME280_humidity;BME280_pressure;Samples;Min_cycle;Max_cycle;Signal;HPM_P1;HPM_P2
2024/03/22 00:01:10;;;;;;;9.50;8.60;;;8.70;99.90;;;;;;5088400;28;20203;-74
2024/03/22 00:03:36;;;;;;;10.00;9.00;;;8.60;99.90;;;;;;5087825;28;20209;-74
2024/03/22 00:06:02;;;;;;;9.07;8.23;;;8.50;99.90;;;;;;5088175;28;20626;-73
2024/03/22 00:08:29;;;;;;;9.60;8.70;;;8.60;99.90;;;;;;5087450;28;20203;-73
2024/03/22 00:10:56;;;;;;;9.23;8.40;;;8.50;99.90;;;;;;5087595;28;20293;-74
2024/03/22 00:13:23;;;;;;;9.93;9.03;;;8.50;99.90;;;;;;5087455;28;20210;-72
2024/03/22 00:15:50;;;;;;;10.23;9.23;;;8.40;99.90;;;;;;5087732;28;20257;-73
2024/03/22 00:18:17;;;;;;;9.43;8.53;;;8.40;99.90;;;;;;5087787;28;20256;-74
2024/03/22 00:20:43;;;;;;;9.63;8.73;;;8.50;99.90;;;;;;5087575;28;20297;-73
2024/03/22 00:23:09;;;;;;;9.83;8.83;;;8.70;99.90;;;;;;5087734;28;20270;-73
2024/03/22 00:25:35;;;;;;;10.10;9.07;;;8.80;99.90;;;;;;5087591;28;20642;-73
2024/03/22 00:28:02;;;;;;;9.90;8.90;;;8.90;99.90;;;;;;5087486;28;20286;-73
2024/03/22 00:30:28;;;;;;;9.57;8.73;;;9.00;99.90;;;;;;5083908;28;20309;-73
2024/03/22 00:32:56;;;;;;;10.13;9.13;;;9.00;99.90;;;;;;5087518;28;20317;-74
2024/03/22 00:35:22;;;;;;;11.23;9.30;;;8.90;99.90;;;;;;5087240;28;20313;-73
2024/03/22 00:37:49;;;;;;;9.97;9.07;;;9.00;99.90;;;;;;5087630;28;20290;-73
2024/03/22 00:40:52;;;;;;;10.57;9.57;;;9.00;99.90;;;;;;5087375;28;20292;-73
2024/03/22 00:43:20;;;;;;;10.40;9.40;;;9.00;99.90;;;;;;5087019;28;20213;-73
2024/03/22 00:45:46;;;;;;;10.63;9.63;;;8.90;99.90;;;;;;5087089;28;20278;-73
2024/03/22 00:48:14;;;;;;;10.30;9.27;;;8.90;99.90;;;;;;5087319;28;20309;-73
2024/03/22 00:50:40;;;;;;;11.20;10.07;;;8.90;99.90;;;;;;5087611;28;20217;-75
2024/03/22 00:53:07;;;;;;;10.17;9.17;;;9.00;99.90;;;;;;5086647;28;20289;-74
2024/03/22 00:58:57;;;;;;;11.23;10.13;;;8.90;99.90;;;;;;5086415;28;20228;-73
2024/03/22 01:01:23;;;;;;;11.77;9.77;;;9.00;99.90;;;;;;5087074;28;20210;-73
2024/03/22 01:03:51;;;;;;;11.33;9.90;;;8.90;99.90;;;;;;5086869;28;20575;-74
2024/03/22 01:06:22;;;;;;;11.63;10.43;;;8.80;99.90;;;;;;5087007;28;20576;-73
2024/03/22 01:08:49;;;;;;;12.40;11.00;;;8.80;99.90;;;;;;5084371;28;20234;-73
2024/03/22 01:11:15;;;;;;;11.93;10.73;;;8.80;99.90;;;;;;5086676;28;20213;-73
2024/03/22 01:13:43;;;;;;;11.70;10.47;;;8.80;99.90;;;;;;5086572;28;20582;-73
2024/03/22 01:16:37;;;;;;;12.17;10.57;;;8.70;99.90;;;;;;5086363;28;20594;-73
2024/03/22 01:19:05;;;;;;;12.40;11.10;;;8.60;99.90;;;;;;5088584;28;20603;-73
2024/03/22 01:21:32;;;;;;;12.67;11.23;;;8.50;99.90;;;;;;5091116;28;20205;-72
2024/03/22 01:23:58;;;;;;;14.13;11.30;;;8.60;99.90;;;;;;5090606;28;20207;-73
2024/03/22 01:26:24;;;;;;;12.23;10.57;;;8.60;99.90;;;;;;5090846;28;20253;-72
2024/03/22 01:28:51;;;;;;;14.23;11.53;;;8.60;99.90;;;;;;5090313;28;20557;-74
2024/03/22 01:31:17;;;;;;;13.17;10.60;;;8.60;99.90;;;;;;5091098;28;20234;-74
2024/03/22 01:33:44;;;;;;;12.53;10.87;;;8.60;99.90;;;;;;5090604;28;20202;-74
2024/03/22 01:36:11;;;;;;;11.40;10.27;;;8.70;99.90;;;;;;5090844;28;20290;-74
2024/03/22 01:38:38;;;;;;;13.37;11.37;;;8.80;99.90;;;;;;5090305;28;20268;-74
2024/03/22 01:41:04;;;;;;;12.33;11.03;;;8.70;99.90;;;;;;5090593;28;20294;-74
2024/03/22 01:43:31;;;;;;;12.70;10.67;;;8.80;99.90;;;;;;5089800;28;20285;-75
2024/03/22 01:45:57;;;;;;;12.80;11.03;;;8.80;99.90;;;;;;5090511;28;20214;-74
2024/03/22 01:48:24;;;;;;;12.80;11.33;;;8.60;99.90;;;;;;5090311;28;20294;-74
2024/03/22 01:50:50;;;;;;;12.30;11.00;;;8.50;99.90;;;;;;5090480;28;20234;-72
2024/03/22 01:53:19;;;;;;;12.30;11.00;;;8.60;99.90;;;;;;5089915;28;20345;-72
2024/03/22 01:55:45;;;;;;;11.00;9.93;;;8.60;99.90;;;;;;5090183;28;20287;-73
2024/03/22 01:58:13;;;;;;;13.17;11.17;;;8.80;99.90;;;;;;5089627;28;20210;-73
2024/03/22 02:00:39;;;;;;;13.33;11.07;;;8.70;99.90;;;;;;5090054;28;20203;-73
2024/03/22 02:03:06;;;;;;;13.47;10.43;;;8.70;99.90;;;;;;5089975;28;20205;-74
2024/03/22 02:05:32;;;;;;;13.53;10.63;;;8.80;99.90;;;;;;5090083;28;20620;-74
2024/03/22 02:07:59;;;;;;;12.57;10.17;;;8.80;99.90;;;;;;5089801;28;20300;-75
2024/03/22 02:10:26;;;;;;;14.03;11.03;;;8.80;99.90;;;;;;5090220;28;20210;-73
2024/03/22 02:12:53;;;;;;;12.17;10.77;;;8.80;99.90;;;;;;5089603;28;20199;-73
2024/03/22 02:15:19;;;;;;;12.33;10.00;;;8.80;99.90;;;;;;5089525;28;20333;-73
2024/03/22 02:17:46;;;;;;;11.80;10.60;;;8.80;99.90;;;;;;5089227;28;20581;-73
2024/03/22 02:20:12;;;;;;;12.80;10.53;;;8.80;99.90;;;;;;5089923;28;20213;-72
2024/03/22 02:22:39;;;;;;;13.33;10.67;;;8.90;99.90;;;;;;5089695;28;20206;-72
2024/03/22 02:25:07;;;;;;;14.33;11.43;;;8.70;99.90;;;;;;5089286;28;20297;-72
2024/03/22 02:27:34;;;;;;;11.73;10.53;;;8.80;99.90;;;;;;5089486;28;20244;-72
2024/03/22 02:30:02;;;;;;;13.40;10.87;;;8.80;99.90;;;;;;5088365;28;20313;-72
2024/03/22 02:32:29;;;;;;;11.70;10.50;;;8.70;99.90;;;;;;5089286;28;20214;-72
2024/03/22 02:34:55;;;;;;;12.57;10.90;;;8.70;99.90;;;;;;5089372;28;20321;-74
2024/03/22 02:37:22;;;;;;;14.53;10.90;;;8.60;99.90;;;;;;5089632;28;20294;-72
2024/03/22 02:39:47;;;;;;;12.53;10.47;;;8.60;99.90;;;;;;5089169;28;20293;-71
2024/03/22 02:42:16;;;;;;;12.20;10.83;;;8.60;99.90;;;;;;5089238;28;20229;-70
2024/03/22 02:44:54;;;;;;;13.30;10.23;;;8.60;99.90;;;;;;5089024;28;20663;-73
2024/03/22 02:47:21;;;;;;;12.50;11.13;;;8.60;99.90;;;;;;5090107;28;20206;-73
2024/03/22 02:49:47;;;;;;;13.20;10.40;;;8.60;99.90;;;;;;5089313;28;20290;-73
2024/03/22 02:52:13;;;;;;;11.93;10.57;;;8.50;99.90;;;;;;5089380;28;20213;-74
2024/03/22 02:54:39;;;;;;;12.23;10.50;;;8.50;99.90;;;;;;5088934;28;20329;-74
2024/03/22 02:57:06;;;;;;;14.97;10.90;;;8.50;99.90;;;;;;5089292;28;20321;-74
2024/03/22 02:59:33;;;;;;;12.17;10.07;;;8.60;99.90;;;;;;5088946;28;20285;-74
2024/03/22 03:02:00;;;;;;;11.60;9.93;;;8.70;99.90;;;;;;5080981;28;20676;-74
2024/03/22 03:04:26;;;;;;;13.17;9.87;;;8.70;99.90;;;;;;5088973;28;20313;-74
2024/03/22 03:06:53;;;;;;;14.10;10.83;;;8.70;99.90;;;;;;5088745;28;20745;-74
2024/03/22 03:09:19;;;;;;;12.07;10.50;;;8.70;99.90;;;;;;5088442;28;20693;-74
2024/03/22 03:11:46;;;;;;;12.57;10.33;;;8.70;99.90;;;;;;5087606;28;20199;-74
2024/03/22 03:14:12;;;;;;;13.43;9.67;;;8.80;99.90;;;;;;5088083;28;20473;-74
2024/03/22 03:16:40;;;;;;;11.47;10.03;;;8.80;99.90;;;;;;5085376;28;20739;-74
2024/03/22 03:19:06;;;;;;;12.97;10.47;;;8.80;99.90;;;;;;5087827;28;20199;-74
2024/03/22 03:21:33;;;;;;;12.97;10.13;;;8.70;99.90;;;;;;5088305;28;20201;-74
2024/03/22 03:23:59;;;;;;;12.50;10.73;;;8.70;99.90;;;;;;5088323;28;20743;-74
2024/03/22 03:26:26;;;;;;;12.27;9.83;;;8.70;99.90;;;;;;5088495;28;20219;-74
2024/03/22 03:28:52;;;;;;;12.73;10.37;;;8.60;99.90;;;;;;5088290;28;20281;-74
2024/03/22 03:31:18;;;;;;;11.23;9.73;;;8.70;99.90;;;;;;5088058;28;20321;-74
2024/03/22 03:33:46;;;;;;;13.43;10.57;;;8.60;99.90;;;;;;5088347;28;20207;-73
2024/03/22 03:36:13;;;;;;;12.83;9.97;;;8.80;99.90;;;;;;5088441;28;20231;-73
2024/03/22 03:38:38;;;;;;;10.50;9.13;;;8.70;99.90;;;;;;5088244;28;20668;-72
2024/03/22 03:41:05;;;;;;;12.30;10.07;;;8.80;99.90;;;;;;5086739;28;20205;-71
2024/03/22 03:43:31;;;;;;;13.10;10.03;;;8.60;99.90;;;;;;5086688;28;20205;-71
2024/03/22 03:45:58;;;;;;;10.73;9.50;;;8.60;99.90;;;;;;5087939;28;20207;-71
2024/03/22 03:48:24;;;;;;;12.47;10.13;;;8.80;99.90;;;;;;5082730;28;20288;-71
2024/03/22 03:51:02;;;;;;;13.50;9.77;;;8.80;99.90;;;;;;5088100;28;20302;-73
2024/03/22 03:53:28;;;;;;;12.40;10.13;;;8.80;99.90;;;;;;5088226;28;20223;-73
2024/03/22 03:55:55;;;;;;;12.10;9.93;;;8.90;99.90;;;;;;5087841;28;20396;-72
2024/03/22 03:58:21;;;;;;;11.00;9.40;;;8.90;99.90;;;;;;5087973;28;20651;-72
2024/03/22 04:00:48;;;;;;;10.60;9.43;;;9.00;99.90;;;;;;5087916;28;20787;-73
2024/03/22 04:03:14;;;;;;;10.57;9.40;;;9.10;99.90;;;;;;5087954;28;21011;-72
2024/03/22 04:05:41;;;;;;;12.17;9.73;;;9.10;99.90;;;;;;5087458;28;20653;-75
2024/03/22 04:08:08;;;;;;;12.40;9.73;;;9.10;99.90;;;;;;5087528;28;20298;-74
2024/03/22 04:10:35;;;;;;;14.97;9.97;;;9.10;99.90;;;;;;5087709;28;20203;-69
2024/03/22 04:13:01;;;;;;;12.00;9.57;;;9.20;99.90;;;;;;5087299;28;20210;-73
2024/03/22 04:15:28;;;;;;;10.50;9.40;;;9.10;99.90;;;;;;5086819;28;20265;-73
2024/03/22 04:17:56;;;;;;;12.00;9.80;;;9.00;99.90;;;;;;5087692;28;20340;-73
2024/03/22 04:20:23;;;;;;;12.10;10.00;;;9.00;99.90;;;;;;5084949;28;20294;-73
2024/03/22 04:22:51;;;;;;;11.27;8.93;;;9.00;99.90;;;;;;5085070;28;20242;-73
2024/03/22 04:25:20;;;;;;;12.83;9.17;;;9.00;99.90;;;;;;5085224;28;20218;-73
2024/03/22 04:27:46;;;;;;;11.67;8.87;;;9.00;99.90;;;;;;5084820;28;20630;-73
2024/03/22 04:30:13;;;;;;;12.13;9.80;;;9.00;99.90;;;;;;5085412;28;20229;-72
2024/03/22 04:32:39;;;;;;;12.83;10.03;;;9.10;99.90;;;;;;5085670;28;20277;-72
2024/03/22 04:35:07;;;;;;;11.87;9.60;;;9.00;99.90;;;;;;5084546;28;20241;-72
2024/03/22 04:37:34;;;;;;;11.10;9.03;;;9.00;99.90;;;;;;5084710;28;20203;-72
2024/03/22 04:40:00;;;;;;;10.90;9.77;;;9.00;99.90;;;;;;5084991;28;20317;-72
2024/03/22 04:42:29;;;;;;;12.60;9.47;;;9.10;99.90;;;;;;5084913;28;20215;-73
2024/03/22 04:44:57;;;;;;;10.73;9.23;;;9.10;99.90;;;;;;5084691;28;20582;-74
2024/03/22 04:47:23;;;;;;;10.90;8.97;;;9.00;99.90;;;;;;5085181;28;20207;-73
2024/03/22 04:49:50;;;;;;;12.23;9.37;;;9.00;99.90;;;;;;5085190;28;20203;-73
2024/03/22 04:52:16;;;;;;;11.63;9.33;;;9.00;99.90;;;;;;5084740;28;20297;-73
2024/03/22 04:54:43;;;;;;;9.97;8.97;;;9.10;99.90;;;;;;5084358;28;20211;-73
2024/03/22 04:57:09;;;;;;;12.80;9.50;;;9.00;99.90;;;;;;5083992;28;20310;-74
2024/03/22 04:59:37;;;;;;;10.40;8.77;;;8.90;99.90;;;;;;5086157;28;20209;-73
2024/03/22 05:02:03;;;;;;;10.80;9.13;;;9.00;99.90;;;;;;5081549;28;20298;-73
2024/03/22 05:04:30;;;;;;;10.27;9.17;;;9.00;99.90;;;;;;5082163;28;20199;-72
2024/03/22 05:06:55;;;;;;;9.67;8.67;;;9.00;99.90;;;;;;5085768;28;20621;-73
2024/03/22 05:09:22;;;;;;;10.27;8.73;;;9.10;99.90;;;;;;5085846;28;20210;-73
2024/03/22 05:11:50;;;;;;;12.53;9.00;;;9.10;99.90;;;;;;5084974;28;20317;-73
2024/03/22 05:14:17;;;;;;;10.53;9.07;;;9.10;99.90;;;;;;5085095;28;20254;-73
2024/03/22 05:16:45;;;;;;;11.20;9.30;;;9.10;99.90;;;;;;5085405;28;20268;-73
2024/03/22 05:19:12;;;;;;;12.23;9.03;;;9.10;99.90;;;;;;5084883;28;20206;-73
2024/03/22 05:21:38;;;;;;;11.20;8.90;;;9.10;99.90;;;;;;5085381;28;20605;-73
2024/03/22 05:24:05;;;;;;;10.30;8.50;;;9.00;99.90;;;;;;5085430;28;20206;-73
2024/03/22 05:26:35;;;;;;;11.57;9.47;;;9.00;99.90;;;;;;5085423;28;20289;-73
2024/03/22 05:29:03;;;;;;;10.43;8.77;;;9.00;99.90;;;;;;5084877;28;20199;-73
2024/03/22 05:31:31;;;;;;;12.57;8.30;;;9.00;99.90;;;;;;5085252;28;20333;-73
2024/03/22 05:33:59;;;;;;;11.27;9.37;;;9.00;99.90;;;;;;5081629;28;20221;-73
2024/03/22 05:36:25;;;;;;;12.30;8.67;;;9.00;99.90;;;;;;5085150;28;20241;-73
2024/03/22 05:38:52;;;;;;;10.23;8.13;;;9.10;99.90;;;;;;5085468;28;20569;-73
2024/03/22 05:41:18;;;;;;;11.13;8.47;;;8.90;99.90;;;;;;5085130;28;20219;-73
2024/03/22 05:43:45;;;;;;;14.40;9.93;;;8.90;99.90;;;;;;5085139;28;20573;-72
2024/03/22 05:46:11;;;;;;;10.37;8.57;;;9.00;99.90;;;;;;5085207;28;20201;-72
2024/03/22 05:48:38;;;;;;;8.83;7.80;;;8.90;99.90;;;;;;5085314;28;20210;-72
2024/03/22 05:51:05;;;;;;;10.67;8.53;;;9.00;99.90;;;;;;5085332;28;20290;-72
2024/03/22 05:53:32;;;;;;;11.67;8.87;;;9.00;99.90;;;;;;5085249;28;20596;-72
2024/03/22 05:55:58;;;;;;;11.00;8.30;;;9.10;99.90;;;;;;5084993;28;20223;-72
2024/03/22 05:58:24;;;;;;;10.47;8.53;;;9.10;99.90;;;;;;5085045;28;20297;-72
2024/03/22 06:00:50;;;;;;;10.43;8.73;;;9.20;99.90;;;;;;5085011;28;20299;-73
2024/03/22 06:03:17;;;;;;;11.50;8.67;;;9.20;99.90;;;;;;5084688;28;20654;-72
2024/03/22 06:05:43;;;;;;;10.13;8.70;;;9.20;99.90;;;;;;5086730;28;20206;-72
2024/03/22 06:08:11;;;;;;;9.17;8.20;;;9.10;99.90;;;;;;5088658;28;20269;-73
2024/03/22 06:10:37;;;;;;;9.33;8.33;;;9.10;99.90;;;;;;5088265;28;20282;-73
2024/03/22 06:13:04;;;;;;;9.73;8.67;;;9.10;99.90;;;;;;5088842;28;20293;-73
2024/03/22 06:15:30;;;;;;;11.50;8.33;;;9.20;99.90;;;;;;5088125;28;20353;-73
2024/03/22 06:17:57;;;;;;;9.47;8.47;;;9.20;99.90;;;;;;5088121;28;20306;-73
2024/03/22 06:20:23;;;;;;;11.47;9.30;;;9.20;99.90;;;;;;5088788;28;20676;-73
2024/03/22 06:22:50;;;;;;;10.03;8.53;;;9.20;99.90;;;;;;5088091;28;20225;-73
2024/03/22 06:25:17;;;;;;;9.90;8.23;;;9.20;99.90;;;;;;5088048;28;21010;-73
2024/03/22 06:27:44;;;;;;;9.40;8.50;;;9.20;99.90;;;;;;5088131;28;20202;-73
2024/03/22 06:30:11;;;;;;;11.10;8.90;;;9.20;99.90;;;;;;5088310;28;20309;-73
2024/03/22 06:32:38;;;;;;;9.83;8.87;;;9.20;99.90;;;;;;5088148;28;20619;-73
2024/03/22 06:35:05;;;;;;;11.60;8.67;;;9.20;99.90;;;;;;5087742;28;20648;-73
2024/03/22 06:37:32;;;;;;;11.07;9.33;;;9.20;99.90;;;;;;5088110;28;20379;-73
2024/03/22 06:39:58;;;;;;;10.23;8.70;;;9.20;99.90;;;;;;5087808;28;20201;-73
2024/03/22 06:42:26;;;;;;;11.87;8.67;;;9.20;99.90;;;;;;5087403;28;20202;-73
2024/03/22 06:44:52;;;;;;;12.37;9.37;;;9.30;99.90;;;;;;5088173;28;20256;-73
2024/03/22 06:47:20;;;;;;;11.53;8.70;;;9.40;99.90;;;;;;5087628;28;20639;-73
2024/03/22 06:49:46;;;;;;;12.13;9.03;;;9.40;99.90;;;;;;5087908;28;20206;-73
2024/03/22 06:52:13;;;;;;;11.23;9.30;;;9.50;99.90;;;;;;5087471;28;20198;-73
2024/03/22 06:54:39;;;;;;;12.87;10.30;;;9.50;99.90;;;;;;5087618;28;20317;-73
2024/03/22 06:57:06;;;;;;;13.57;9.80;;;9.50;99.90;;;;;;5087029;28;20227;-73
2024/03/22 06:59:33;;;;;;;12.30;9.83;;;9.50;99.90;;;;;;5086729;28;20297;-73
2024/03/22 07:02:00;;;;;;;12.50;9.37;;;9.50;99.90;;;;;;5087759;28;20574;-73
2024/03/22 07:04:26;;;;;;;11.53;9.37;;;9.60;99.90;;;;;;5087269;28;20199;-73
2024/03/22 07:06:53;;;;;;;13.70;10.47;;;9.60;99.90;;;;;;5087482;28;20209;-73
2024/03/22 07:09:19;;;;;;;13.67;11.23;;;9.60;99.90;;;;;;5088140;28;20233;-73
2024/03/22 07:11:45;;;;;;;10.97;9.80;;;9.60;99.90;;;;;;5087429;28;20233;-73
2024/03/22 07:14:12;;;;;;;11.43;9.63;;;9.60;99.90;;;;;;5086862;28;20604;-73
2024/03/22 07:16:40;;;;;;;12.20;10.40;;;9.60;99.90;;;;;;5087361;28;20230;-73
2024/03/22 07:19:06;;;;;;;11.67;10.47;;;9.60;99.90;;;;;;5085999;28;20199;-73
2024/03/22 07:21:33;;;;;;;12.70;10.70;;;9.70;99.90;;;;;;5087316;28;21025;-73
2024/03/22 07:23:58;;;;;;;14.50;11.63;;;9.70;99.90;;;;;;5086310;28;20226;-73
2024/03/22 07:26:25;;;;;;;15.03;11.37;;;9.70;99.90;;;;;;5086850;28;20287;-73
2024/03/22 07:28:51;;;;;;;12.53;11.07;;;9.70;99.90;;;;;;5086681;28;20209;-73
2024/03/22 07:31:18;;;;;;;14.23;11.13;;;9.70;99.90;;;;;;5086758;28;20227;-73
2024/03/22 07:33:45;;;;;;;13.07;11.70;;;9.70;99.90;;;;;;5086638;28;20292;-73
2024/03/22 07:36:12;;;;;;;14.07;11.77;;;9.70;99.90;;;;;;5086472;28;20227;-73
2024/03/22 07:38:38;;;;;;;13.67;11.43;;;9.70;99.90;;;;;;5087356;28;20222;-73
2024/03/22 07:41:05;;;;;;;15.63;12.60;;;9.70;99.90;;;;;;5086596;28;20226;-73
2024/03/22 07:43:31;;;;;;;14.67;12.20;;;9.80;99.90;;;;;;5086164;28;20261;-73
2024/03/22 07:45:58;;;;;;;14.90;11.83;;;9.90;99.90;;;;;;5086071;28;20207;-72
2024/03/22 07:48:24;;;;;;;14.43;12.57;;;9.80;99.90;;;;;;5086678;28;20209;-73
2024/03/22 07:50:58;;;;;;;16.23;12.57;;;9.90;99.90;;;;;;5086142;28;20207;-73
2024/03/22 07:53:24;;;;;;;15.97;11.90;;;9.90;99.90;;;;;;5084752;28;20289;-73
2024/03/22 07:55:51;;;;;;;17.00;12.63;;;10.00;99.90;;;;;;5086889;28;20222;-73
2024/03/22 07:58:17;;;;;;;15.43;12.60;;;10.00;99.90;;;;;;5086523;28;20349;-73
2024/03/22 08:00:44;;;;;;;14.77;12.67;;;10.10;99.90;;;;;;5086511;28;20900;-73
2024/03/22 08:03:15;;;;;;;16.83;13.03;;;10.20;99.90;;;;;;5086196;28;20290;-74
2024/03/22 08:05:42;;;;;;;15.37;12.93;;;10.30;99.90;;;;;;5086671;28;20195;-73
2024/03/22 08:08:10;;;;;;;14.23;12.73;;;10.40;99.90;;;;;;5086236;28;20326;-73
2024/03/22 08:10:37;;;;;;;15.13;12.30;;;10.40;99.90;;;;;;5081223;28;20199;-73
2024/03/22 08:13:03;;;;;;;15.47;12.93;;;10.40;99.90;;;;;;5085935;28;20321;-72
2024/03/22 08:15:31;;;;;;;16.27;11.77;;;10.50;99.90;;;;;;5085894;28;20250;-72
2024/03/22 08:17:57;;;;;;;15.40;13.13;;;10.40;99.90;;;;;;5086104;28;20574;-72
2024/03/22 08:20:24;;;;;;;16.60;14.30;;;10.40;99.90;;;;;;5086214;28;20206;-73
2024/03/22 08:22:50;;;;;;;19.13;13.87;;;10.40;99.90;;;;;;5085912;28;20206;-72
2024/03/22 08:25:20;;;;;;;16.93;13.57;;;10.40;99.90;;;;;;5086078;28;20675;-72
2024/03/22 08:27:46;;;;;;;15.80;12.57;;;10.40;99.90;;;;;;5085850;28;20718;-73
2024/03/22 08:30:14;;;;;;;17.30;14.40;;;10.40;99.90;;;;;;5085757;28;20275;-73
2024/03/22 08:32:39;;;;;;;16.67;13.53;;;10.40;99.90;;;;;;5086309;28;20321;-72
2024/03/22 08:35:07;;;;;;;16.13;13.30;;;10.50;99.90;;;;;;5085919;28;20293;-73
2024/03/22 08:37:33;;;;;;;18.50;13.67;;;10.50;99.90;;;;;;5086161;28;20919;-72
2024/03/22 08:40:00;;;;;;;16.97;13.93;;;10.50;99.90;;;;;;5085341;28;20207;-73
2024/03/22 08:42:28;;;;;;;16.10;13.27;;;10.60;99.90;;;;;;5086182;28;20705;-73
2024/03/22 08:44:55;;;;;;;18.23;13.07;;;10.60;99.90;;;;;;5085405;28;20656;-73
2024/03/22 08:47:21;;;;;;;15.63;12.83;;;10.60;99.90;;;;;;5085741;28;20245;-73
2024/03/22 08:49:48;;;;;;;17.03;12.73;;;10.70;99.90;;;;;;5085827;28;20281;-73
2024/03/22 08:52:14;;;;;;;16.10;13.07;;;10.70;99.90;;;;;;5085288;28;20207;-73
2024/03/22 08:54:41;;;;;;;16.73;13.00;;;10.70;99.90;;;;;;5085608;28;20218;-74
2024/03/22 08:57:07;;;;;;;16.93;13.47;;;10.70;99.90;;;;;;5085728;28;20317;-73
2024/03/22 08:59:37;;;;;;;15.30;12.77;;;10.70;99.90;;;;;;5085344;28;20909;-73
2024/03/22 09:02:03;;;;;;;17.40;13.20;;;10.80;99.90;;;;;;5083159;28;20199;-73
2024/03/22 09:04:30;;;;;;;17.47;14.00;;;10.90;99.90;;;;;;5085650;28;20255;-73
2024/03/22 09:06:56;;;;;;;15.87;13.13;;;10.90;99.90;;;;;;5085256;28;20290;-73
2024/03/22 09:09:23;;;;;;;15.63;12.27;;;11.00;99.90;;;;;;5085376;28;20195;-73
2024/03/22 09:11:49;;;;;;;16.37;13.40;;;11.10;99.90;;;;;;5085128;28;20227;-73
2024/03/22 09:14:16;;;;;;;17.23;12.80;;;11.10;99.90;;;;;;5084942;28;20262;-73
2024/03/22 09:16:44;;;;;;;16.10;12.53;;;11.10;99.90;;;;;;5085173;28;20222;-72
2024/03/22 09:19:11;;;;;;;16.60;13.10;;;11.10;99.90;;;;;;5085223;28;20731;-73
2024/03/22 09:21:37;;;;;;;14.67;12.80;;;11.20;99.90;;;;;;5084786;28;20199;-73
2024/03/22 09:24:04;;;;;;;15.23;12.00;;;11.20;99.90;;;;;;5084806;28;20202;-72
2024/03/22 09:27:11;;;;;;;15.77;12.90;;;11.20;99.90;;;;;;5084592;28;20210;-72
2024/03/22 09:29:38;;;;;;;16.13;13.33;;;11.30;99.90;;;;;;5084012;28;20226;-73
2024/03/22 09:32:07;;;;;;;15.37;12.13;;;11.30;99.90;;;;;;5084593;28;20205;-73
2024/03/22 09:34:33;;;;;;;14.73;11.83;;;11.30;99.90;;;;;;5084389;28;20289;-73
2024/03/22 09:36:59;;;;;;;14.40;12.03;;;11.30;99.90;;;;;;5084649;28;20233;-73
2024/03/22 09:39:27;;;;;;;16.83;13.00;;;11.30;99.90;;;;;;5085023;28;20205;-73
2024/03/22 09:41:58;;;;;;;15.93;12.10;;;11.30;99.90;;;;;;5088325;28;20206;-72
2024/03/22 09:44:27;;;;;;;16.30;12.63;;;11.40;99.90;;;;;;5086646;28;20201;-73
2024/03/22 09:46:55;;;;;;;16.83;12.53;;;11.40;99.90;;;;;;5089056;28;20397;-73
2024/03/22 09:49:23;;;;;;;18.20;12.83;;;11.40;99.90;;;;;;5086626;28;20232;-73
2024/03/22 09:51:52;;;;;;;17.73;14.63;;;11.40;99.90;;;;;;5088894;28;20231;-73
2024/03/22 09:54:18;;;;;;;18.07;14.13;;;11.50;99.90;;;;;;5088656;28;20612;-73
2024/03/22 09:56:48;;;;;;;14.67;12.10;;;11.50;99.90;;;;;;5088790;28;20233;-73
2024/03/22 09:59:14;;;;;;;13.67;11.50;;;11.50;99.90;;;;;;5088578;28;20194;-73
2024/03/22 10:01:43;;;;;;;14.97;12.20;;;11.50;99.90;;;;;;5088390;28;20210;-73
2024/03/22 10:04:09;;;;;;;15.53;11.37;;;11.50;99.90;;;;;;5088734;28;20261;-73
2024/03/22 10:06:37;;;;;;;13.23;11.07;;;11.50;99.90;;;;;;5088533;28;20681;-73
2024/03/22 10:09:05;;;;;;;13.27;10.77;;;11.60;99.90;;;;;;5088855;28;20791;-73
2024/03/22 10:11:33;;;;;;;13.60;11.67;;;11.60;99.90;;;;;;5088188;28;20268;-73
2024/03/22 10:14:00;;;;;;;15.10;11.93;;;11.60;99.90;;;;;;5088413;28;20426;-73
2024/03/22 10:16:27;;;;;;;12.63;11.33;;;11.70;99.90;;;;;;5086791;28;20643;-73
2024/03/22 10:18:55;;;;;;;13.57;11.40;;;11.70;99.90;;;;;;5088193;28;20786;-73
2024/03/22 10:21:21;;;;;;;13.33;11.20;;;11.70;99.90;;;;;;5085749;28;20229;-73
2024/03/22 10:23:50;;;;;;;15.00;11.17;;;11.70;99.90;;;;;;5088050;28;20207;-74
2024/03/22 10:26:17;;;;;;;13.83;11.00;;;11.80;99.90;;;;;;5087909;28;20670;-73
2024/03/22 10:28:46;;;;;;;15.10;10.77;;;11.80;99.90;;;;;;5088349;28;20282;-73
2024/03/22 10:31:14;;;;;;;15.67;11.67;;;11.90;99.90;;;;;;5088347;28;20271;-73
2024/03/22 10:33:41;;;;;;;13.53;11.13;;;11.90;99.90;;;;;;5086156;28;20214;-72
2024/03/22 10:36:08;;;;;;;13.83;11.40;;;12.00;99.90;;;;;;5088428;28;20226;-72
2024/03/22 10:38:37;;;;;;;14.33;10.40;;;12.10;99.90;;;;;;5087763;28;20571;-72
2024/03/22 10:41:06;;;;;;;14.43;10.53;;;12.20;99.90;;;;;;5088167;28;20238;-73
2024/03/22 10:43:31;;;;;;;13.20;10.67;;;12.30;99.90;;;;;;5087853;28;20470;-73
2024/03/22 10:56:08;;;;;;;11.67;10.23;;;12.60;99.90;;;;;;5082097;28;20225;-73
2024/03/22 10:58:34;;;;;;;12.00;10.17;;;12.60;99.90;;;;;;5087516;28;20235;-73
2024/03/22 11:01:02;;;;;;;12.57;9.80;;;12.70;99.90;;;;;;5087290;28;20207;-73
2024/03/22 11:03:30;;;;;;;12.33;10.70;;;12.70;99.90;;;;;;5087103;28;20351;-73
2024/03/22 11:05:58;;;;;;;11.67;10.43;;;12.70;99.90;;;;;;5087367;28;20603;-73
2024/03/22 11:08:25;;;;;;;13.20;10.33;;;12.70;99.90;;;;;;5087152;28;20230;-73
2024/03/22 11:10:51;;;;;;;13.23;11.37;;;12.70;99.90;;;;;;5086457;28;20203;-73
2024/03/22 11:13:19;;;;;;;13.17;10.43;;;12.70;99.90;;;;;;5086705;28;20290;-73
2024/03/22 11:15:48;;;;;;;12.10;9.93;;;12.60;99.90;;;;;;5087230;28;20623;-72
2024/03/22 11:18:15;;;;;;;12.13;10.63;;;12.60;99.90;;;;;;5087802;28;20297;-73
2024/03/22 11:20:43;;;;;;;15.07;10.63;;;12.60;99.90;;;;;;5085425;28;20207;-73
2024/03/22 11:23:09;;;;;;;12.00;10.43;;;12.60;99.90;;;;;;5087029;28;20238;-73
2024/03/22 11:25:36;;;;;;;16.27;10.93;;;12.50;99.90;;;;;;5087157;28;20229;-73
2024/03/22 11:28:03;;;;;;;12.97;9.70;;;12.50;99.90;;;;;;5083904;28;20203;-73
2024/03/22 11:30:32;;;;;;;12.50;10.33;;;12.50;99.90;;;;;;5079761;28;20198;-73
2024/03/22 11:33:01;;;;;;;12.70;10.20;;;12.50;99.90;;;;;;5087217;28;20195;-73
2024/03/22 11:35:28;;;;;;;13.67;10.00;;;12.50;99.90;;;;;;5086942;28;20210;-73
2024/03/22 11:37:54;;;;;;;12.00;10.50;;;12.50;99.90;;;;;;5087463;28;20234;-73
2024/03/22 11:40:21;;;;;;;13.17;10.53;;;12.40;99.90;;;;;;5087111;28;20694;-73
2024/03/22 11:42:51;;;;;;;12.37;10.57;;;12.40;99.90;;;;;;5086783;28;20206;-73
2024/03/22 11:45:20;;;;;;;13.60;10.60;;;12.40;99.90;;;;;;5086624;28;20665;-73
2024/03/22 11:47:47;;;;;;;14.07;10.80;;;12.40;99.90;;;;;;5087365;28;20289;-73
2024/03/22 11:50:15;;;;;;;12.67;10.60;;;12.40;99.90;;;;;;5087374;28;20985;-73
2024/03/22 11:52:42;;;;;;;16.60;10.90;;;12.30;99.90;;;;;;5086872;28;20340;-73
2024/03/22 11:55:10;;;;;;;16.13;11.63;;;12.30;99.90;;;;;;5087020;28;20209;-73
2024/03/22 11:57:37;;;;;;;15.93;11.73;;;12.20;99.90;;;;;;5086792;28;20304;-73
2024/03/22 12:00:09;;;;;;;15.97;12.30;;;12.10;99.90;;;;;;5084400;28;20643;-73
2024/03/22 12:02:36;;;;;;;14.67;12.20;;;12.10;99.90;;;;;;5085790;28;20195;-73
2024/03/22 12:05:06;;;;;;;17.03;13.27;;;11.90;99.90;;;;;;5083652;28;20195;-73
2024/03/22 12:07:32;;;;;;;17.30;13.13;;;11.80;99.90;;;;;;5086117;28;20200;-73
2024/03/22 12:09:59;;;;;;;17.07;13.40;;;11.80;99.90;;;;;;5086358;28;20199;-74
2024/03/22 12:12:26;;;;;;;20.07;14.13;;;11.70;99.90;;;;;;5086749;28;20223;-73
2024/03/22 12:14:53;;;;;;;20.07;13.80;;;11.60;99.90;;;;;;5085613;28;20312;-73
2024/03/22 12:17:20;;;;;;;17.60;13.30;;;11.60;99.90;;;;;;5086200;28;20234;-73
2024/03/22 12:19:47;;;;;;;18.10;13.77;;;11.60;99.90;;;;;;5086589;28;20210;-72
2024/03/22 12:22:14;;;;;;;18.80;13.60;;;11.60;99.90;;;;;;5086688;28;20560;-72
2024/03/22 12:24:42;;;;;;;19.37;12.87;;;11.50;99.90;;;;;;5078795;28;20207;-72
2024/03/22 12:27:07;;;;;;;17.87;14.13;;;11.50;99.90;;;;;;5086428;28;20238;-71
2024/03/22 12:29:35;;;;;;;19.57;15.00;;;11.40;99.90;;;;;;5085895;28;20246;-72
2024/03/22 12:32:03;;;;;;;20.60;14.97;;;11.40;99.90;;;;;;5083465;28;20297;-72
2024/03/22 12:34:30;;;;;;;20.07;14.10;;;11.40;99.90;;;;;;5085959;28;20199;-72
2024/03/22 12:36:56;;;;;;;20.97;14.73;;;11.40;99.90;;;;;;5086037;28;20311;-71
2024/03/22 12:39:25;;;;;;;19.97;13.63;;;11.30;99.90;;;;;;5085945;28;20230;-72
2024/03/22 12:41:51;;;;;;;19.63;13.40;;;11.40;99.90;;;;;;5085524;28;20326;-72
2024/03/22 12:44:18;;;;;;;20.13;14.17;;;11.40;99.90;;;;;;5085211;28;20195;-72
2024/03/22 12:46:44;;;;;;;21.17;14.80;;;11.40;99.90;;;;;;5085634;28;20600;-72
2024/03/22 12:49:11;;;;;;;20.30;15.17;;;11.40;99.90;;;;;;5085893;28;20359;-72
2024/03/22 12:51:37;;;;;;;19.67;14.37;;;11.40;99.90;;;;;;5086068;28;20320;-72